sensor_id;sensor_type;location;lat;lon;timestamp;temperature;humidity
49224;DHT22;35050;51.316;5.994;2023-03-26T00:00:46;9.60;99.90
49224;DHT22;35050;51.316;5.994;2023-03-26T00:03:16;9.60;99.90
49224;DHT22;35050;51.316;5.994;2023-03-26T00:05:43;9.50;99.90
49224;DHT22;35050;51.316;5.994;2023-03-26T00:08:09;9.50;99.90
49224;DHT22;35050;51.316;5.994;2023-03-26T00:10:36;9.50;99.90
49224;DHT22;35050;51.316;5.994;2023-03-26T00:13:03;9.50;99.90
49224;DHT22;35050;51.316;5.994;2023-03-26T00:15:29;9.50;99.90
49224;DHT22;35050;51.316;5.994;2023-03-26T00:17:55;9.50;99.90
49224;DHT22;35050;51.316;5.994;2023-03-26T00:20:21;9.50;99.90
49224;DHT22;35050;51.316;5.994;2023-03-26T00:22:47;9.40;99.90
49224;DHT22;35050;51.316;5.994;2023-03-26T00:25:13;9.30;99.90
49224;DHT22;35050;51.316;5.994;2023-03-26T00:27:39;9.50;99.90
49224;DHT22;35050;51.316;5.994;2023-03-26T00:30:07;9.50;99.90
49224;DHT22;35050;51.316;5.994;2023-03-26T00:32:33;9.50;99.90
49224;DHT22;35050;51.316;5.994;2023-03-26T00:34:58;9.40;99.90
49224;DHT22;35050;51.316;5.994;2023-03-26T00:37:26;9.50;99.90
49224;DHT22;35050;51.316;5.994;2023-03-26T00:39:52;9.40;99.90
49224;DHT22;35050;51.316;5.994;2023-03-26T00:42:19;9.30;99.90
49224;DHT22;35050;51.316;5.994;2023-03-26T00:44:45;9.40;99.90
49224;DHT22;35050;51.316;5.994;2023-03-26T00:47:11;9.50;99.90
49224;DHT22;35050;51.316;5.994;2023-03-26T00:49:37;9.40;99.90
49224;DHT22;35050;51.316;5.994;2023-03-26T00:52:03;9.40;99.90
49224;DHT22;35050;51.316;5.994;2023-03-26T00:54:33;9.40;99.90
49224;DHT22;35050;51.316;5.994;2023-03-26T00:56:59;9.20;99.90
49224;DHT22;35050;51.316;5.994;2023-03-26T00:59:24;9.20;99.90
49224;DHT22;35050;51.316;5.994;2023-03-26T01:01:55;9.20;99.90
49224;DHT22;35050;51.316;5.994;2023-03-26T01:04:26;9.30;99.90
49224;DHT22;35050;51.316;5.994;2023-03-26T01:06:59;9.30;99.90
49224;DHT22;35050;51.316;5.994;2023-03-26T01:09:31;9.20;99.90
49224;DHT22;35050;51.316;5.994;2023-03-26T01:11:59;9.20;99.90
49224;DHT22;35050;51.316;5.994;2023-03-26T01:14:26;9.20;99.90
49224;DHT22;35050;51.316;5.994;2023-03-26T01:16:56;9.20;99.90
49224;DHT22;35050;51.316;5.994;2023-03-26T01:19:30;9.20;99.90
49224;DHT22;35050;51.316;5.994;2023-03-26T01:21:58;9.00;99.90
49224;DHT22;35050;51.316;5.994;2023-03-26T01:24:25;9.10;99.90
49224;DHT22;35050;51.316;5.994;2023-03-26T01:29:28;9.10;99.90
49224;DHT22;35050;51.316;5.994;2023-03-26T01:32:35;9.00;99.90
49224;DHT22;35050;51.316;5.994;2023-03-26T01:35:38;9.00;99.90
49224;DHT22;35050;51.316;5.994;2023-03-26T01:41:38;9.00;99.90
49224;DHT22;35050;51.316;5.994;2023-03-26T01:44:22;8.90;99.90
49224;DHT22;35050;51.316;5.994;2023-03-26T01:46:51;8.90;99.90
49224;DHT22;35050;51.316;5.994;2023-03-26T01:49:17;8.90;99.90
49224;DHT22;35050;51.316;5.994;2023-03-26T01:51:43;8.90;99.90
49224;DHT22;35050;51.316;5.994;2023-03-26T01:54:18;8.90;99.90
49224;DHT22;35050;51.316;5.994;2023-03-26T02:08:07;8.80;99.90
49224;DHT22;35050;51.316;5.994;2023-03-26T02:10:43;8.80;99.90
49224;DHT22;35050;51.316;5.994;2023-03-26T02:13:10;8.80;99.90
49224;DHT22;35050;51.316;5.994;2023-03-26T02:15:38;8.80;99.90
49224;DHT22;35050;51.316;5.994;2023-03-26T02:18:04;8.80;99.90
49224;DHT22;35050;51.316;5.994;2023-03-26T02:20:29;8.80;99.90
49224;DHT22;35050;51.316;5.994;2023-03-26T02:22:56;8.80;99.90
49224;DHT22;35050;51.316;5.994;2023-03-26T02:25:22;8.90;99.90
49224;DHT22;35050;51.316;5.994;2023-03-26T02:27:51;8.80;99.90
49224;DHT22;35050;51.316;5.994;2023-03-26T02:30:23;8.90;99.90
49224;DHT22;35050;51.316;5.994;2023-03-26T02:32:54;8.80;99.90
49224;DHT22;35050;51.316;5.994;2023-03-26T02:35:23;8.90;99.90
49224;DHT22;35050;51.316;5.994;2023-03-26T02:37:49;8.90;99.90
49224;DHT22;35050;51.316;5.994;2023-03-26T02:40:17;8.90;99.90
49224;DHT22;35050;51.316;5.994;2023-03-26T02:42:43;8.90;99.90
49224;DHT22;35050;51.316;5.994;2023-03-26T02:45:09;8.90;99.90
49224;DHT22;35050;51.316;5.994;2023-03-26T02:47:35;8.90;99.90
49224;DHT22;35050;51.316;5.994;2023-03-26T02:50:01;8.80;99.90
49224;DHT22;35050;51.316;5.994;2023-03-26T02:52:28;8.90;99.90
49224;DHT22;35050;51.316;5.994;2023-03-26T02:54:54;9.00;99.90
49224;DHT22;35050;51.316;5.994;2023-03-26T02:57:20;9.00;99.90
49224;DHT22;35050;51.316;5.994;2023-03-26T02:59:46;9.00;99.90
49224;DHT22;35050;51.316;5.994;2023-03-26T03:02:15;9.00;99.90
49224;DHT22;35050;51.316;5.994;2023-03-26T03:04:41;9.10;99.90
49224;DHT22;35050;51.316;5.994;2023-03-26T03:07:06;9.20;99.90
49224;DHT22;35050;51.316;5.994;2023-03-26T03:09:32;9.10;99.90
49224;DHT22;35050;51.316;5.994;2023-03-26T03:11:59;9.10;99.90
49224;DHT22;35050;51.316;5.994;2023-03-26T03:14:24;9.10;99.90
49224;DHT22;35050;51.316;5.994;2023-03-26T03:16:50;9.10;99.90
49224;DHT22;35050;51.316;5.994;2023-03-26T03:19:16;9.00;99.90
49224;DHT22;35050;51.316;5.994;2023-03-26T03:21:41;9.10;99.90
49224;DHT22;35050;51.316;5.994;2023-03-26T03:24:08;9.10;99.90
49224;DHT22;35050;51.316;5.994;2023-03-26T03:26:34;9.20;99.90
49224;DHT22;35050;51.316;5.994;2023-03-26T03:29:00;9.20;99.90
49224;DHT22;35050;51.316;5.994;2023-03-26T03:31:26;9.20;99.90
49224;DHT22;35050;51.316;5.994;2023-03-26T03:33:53;9.20;99.90
49224;DHT22;35050;51.316;5.994;2023-03-26T03:36:21;9.20;99.90
49224;DHT22;35050;51.316;5.994;2023-03-26T03:38:47;9.30;99.90
49224;DHT22;35050;51.316;5.994;2023-03-26T03:41:13;9.30;99.90
49224;DHT22;35050;51.316;5.994;2023-03-26T03:43:39;9.20;99.90
49224;DHT22;35050;51.316;5.994;2023-03-26T03:46:05;9.20;99.90
49224;DHT22;35050;51.316;5.994;2023-03-26T03:48:31;9.30;99.90
49224;DHT22;35050;51.316;5.994;2023-03-26T03:50:57;9.30;99.90
49224;DHT22;35050;51.316;5.994;2023-03-26T03:53:23;9.20;99.90
49224;DHT22;35050;51.316;5.994;2023-03-26T03:55:54;9.20;99.90
49224;DHT22;35050;51.316;5.994;2023-03-26T03:58:24;9.30;99.90
49224;DHT22;35050;51.316;5.994;2023-03-26T04:00:53;9.30;99.90
49224;DHT22;35050;51.316;5.994;2023-03-26T04:03:26;9.30;99.90
49224;DHT22;35050;51.316;5.994;2023-03-26T04:05:55;9.30;99.90
49224;DHT22;35050;51.316;5.994;2023-03-26T04:08:22;9.30;99.90
49224;DHT22;35050;51.316;5.994;2023-03-26T04:10:48;9.30;99.90
49224;DHT22;35050;51.316;5.994;2023-03-26T04:13:15;9.40;99.90
49224;DHT22;35050;51.316;5.994;2023-03-26T04:15:41;9.40;99.90
49224;DHT22;35050;51.316;5.994;2023-03-26T04:18:08;9.30;99.90
49224;DHT22;35050;51.316;5.994;2023-03-26T04:20:37;9.40;99.90
49224;DHT22;35050;51.316;5.994;2023-03-26T04:23:05;9.30;99.90
49224;DHT22;35050;51.316;5.994;2023-03-26T04:25:33;9.30;99.90
49224;DHT22;35050;51.316;5.994;2023-03-26T04:28:02;9.30;99.90
49224;DHT22;35050;51.316;5.994;2023-03-26T04:30:32;9.30;99.90
49224;DHT22;35050;51.316;5.994;2023-03-26T04:32:59;9.10;99.90
49224;DHT22;35050;51.316;5.994;2023-03-26T04:35:30;9.20;99.90
49224;DHT22;35050;51.316;5.994;2023-03-26T04:37:59;9.20;99.90
49224;DHT22;35050;51.316;5.994;2023-03-26T04:40:25;9.20;99.90
49224;DHT22;35050;51.316;5.994;2023-03-26T04:42:51;9.20;99.90
49224;DHT22;35050;51.316;5.994;2023-03-26T04:45:19;9.10;99.90
49224;DHT22;35050;51.316;5.994;2023-03-26T04:47:47;9.00;99.90
49224;DHT22;35050;51.316;5.994;2023-03-26T04:50:15;9.10;99.90
49224;DHT22;35050;51.316;5.994;2023-03-26T04:52:40;9.00;99.90
49224;DHT22;35050;51.316;5.994;2023-03-26T04:55:15;9.00;99.90
49224;DHT22;35050;51.316;5.994;2023-03-26T04:57:43;9.10;99.90
49224;DHT22;35050;51.316;5.994;2023-03-26T05:00:13;9.00;99.90
49224;DHT22;35050;51.316;5.994;2023-03-26T05:02:41;9.00;99.90
49224;DHT22;35050;51.316;5.994;2023-03-26T05:05:08;9.10;99.90
49224;DHT22;35050;51.316;5.994;2023-03-26T05:07:33;9.00;99.90
49224;DHT22;35050;51.316;5.994;2023-03-26T05:10:00;9.10;99.90
49224;DHT22;35050;51.316;5.994;2023-03-26T05:12:28;9.00;99.90
49224;DHT22;35050;51.316;5.994;2023-03-26T05:14:53;9.10;99.90
49224;DHT22;35050;51.316;5.994;2023-03-26T05:17:19;9.00;99.90
49224;DHT22;35050;51.316;5.994;2023-03-26T05:19:46;9.00;99.90
49224;DHT22;35050;51.316;5.994;2023-03-26T05:22:12;9.00;99.90
49224;DHT22;35050;51.316;5.994;2023-03-26T05:24:38;9.00;99.90
49224;DHT22;35050;51.316;5.994;2023-03-26T05:27:04;9.00;99.90
49224;DHT22;35050;51.316;5.994;2023-03-26T05:29:30;9.00;99.90
49224;DHT22;35050;51.316;5.994;2023-03-26T05:31:55;8.90;99.90
49224;DHT22;35050;51.316;5.994;2023-03-26T05:34:21;8.90;99.90
49224;DHT22;35050;51.316;5.994;2023-03-26T05:36:50;9.00;99.90
49224;DHT22;35050;51.316;5.994;2023-03-26T05:39:16;8.90;99.90
49224;DHT22;35050;51.316;5.994;2023-03-26T05:41:42;8.80;99.90
49224;DHT22;35050;51.316;5.994;2023-03-26T05:44:08;8.90;99.90
49224;DHT22;35050;51.316;5.994;2023-03-26T05:46:34;8.90;99.90
49224;DHT22;35050;51.316;5.994;2023-03-26T05:48:59;8.80;99.90
49224;DHT22;35050;51.316;5.994;2023-03-26T05:51:25;8.90;99.90
49224;DHT22;35050;51.316;5.994;2023-03-26T05:53:51;8.90;99.90
49224;DHT22;35050;51.316;5.994;2023-03-26T05:56:18;8.90;99.90
49224;DHT22;35050;51.316;5.994;2023-03-26T05:58:43;8.80;99.90
49224;DHT22;35050;51.316;5.994;2023-03-26T06:01:11;8.80;99.90
49224;DHT22;35050;51.316;5.994;2023-03-26T06:03:42;8.70;99.90
49224;DHT22;35050;51.316;5.994;2023-03-26T06:06:15;8.70;99.90
49224;DHT22;35050;51.316;5.994;2023-03-26T06:08:50;8.70;99.90
49224;DHT22;35050;51.316;5.994;2023-03-26T06:11:18;8.80;99.90
49224;DHT22;35050;51.316;5.994;2023-03-26T06:13:45;8.80;99.90
49224;DHT22;35050;51.316;5.994;2023-03-26T06:16:12;8.80;99.90
49224;DHT22;35050;51.316;5.994;2023-03-26T06:18:38;8.70;99.90
49224;DHT22;35050;51.316;5.994;2023-03-26T06:21:05;8.80;99.90
49224;DHT22;35050;51.316;5.994;2023-03-26T06:23:31;8.70;99.90
49224;DHT22;35050;51.316;5.994;2023-03-26T06:25:57;8.80;99.90
49224;DHT22;35050;51.316;5.994;2023-03-26T06:28:22;8.90;99.90
49224;DHT22;35050;51.316;5.994;2023-03-26T06:30:48;8.80;99.90
49224;DHT22;35050;51.316;5.994;2023-03-26T06:33:14;8.70;99.90
49224;DHT22;35050;51.316;5.994;2023-03-26T06:35:40;8.70;99.90
49224;DHT22;35050;51.316;5.994;2023-03-26T06:38:07;8.80;99.90
49224;DHT22;35050;51.316;5.994;2023-03-26T06:40:33;8.70;99.90
49224;DHT22;35050;51.316;5.994;2023-03-26T06:42:59;8.80;99.90
49224;DHT22;35050;51.316;5.994;2023-03-26T06:45:26;8.90;99.90
49224;DHT22;35050;51.316;5.994;2023-03-26T06:47:52;8.90;99.90
49224;DHT22;35050;51.316;5.994;2023-03-26T06:50:18;8.90;99.90
49224;DHT22;35050;51.316;5.994;2023-03-26T06:52:44;8.90;99.90
49224;DHT22;35050;51.316;5.994;2023-03-26T06:55:10;8.90;99.90
49224;DHT22;35050;51.316;5.994;2023-03-26T06:57:36;8.90;99.90
49224;DHT22;35050;51.316;5.994;2023-03-26T07:00:03;8.90;99.90
49224;DHT22;35050;51.316;5.994;2023-03-26T07:02:29;8.90;99.90
49224;DHT22;35050;51.316;5.994;2023-03-26T07:04:54;8.90;99.90
49224;DHT22;35050;51.316;5.994;2023-03-26T07:07:20;9.00;99.90
49224;DHT22;35050;51.316;5.994;2023-03-26T07:09:48;9.00;99.90
49224;DHT22;35050;51.316;5.994;2023-03-26T07:12:14;9.00;99.90
49224;DHT22;35050;51.316;5.994;2023-03-26T07:14:40;9.00;99.90
49224;DHT22;35050;51.316;5.994;2023-03-26T07:17:05;9.10;99.90
49224;DHT22;35050;51.316;5.994;2023-03-26T07:19:32;8.90;99.90
49224;DHT22;35050;51.316;5.994;2023-03-26T07:21:58;8.90;99.90
49224;DHT22;35050;51.316;5.994;2023-03-26T07:24:24;8.90;99.90
49224;DHT22;35050;51.316;5.994;2023-03-26T07:26:55;9.00;99.90
49224;DHT22;35050;51.316;5.994;2023-03-26T07:29:51;8.80;99.90
49224;DHT22;35050;51.316;5.994;2023-03-26T07:35:40;8.80;99.90
49224;DHT22;35050;51.316;5.994;2023-03-26T07:41:36;8.80;99.90
49224;DHT22;35050;51.316;5.994;2023-03-26T07:46:52;8.90;99.90
49224;DHT22;35050;51.316;5.994;2023-03-26T07:49:18;8.90;99.90
49224;DHT22;35050;51.316;5.994;2023-03-26T07:51:45;9.00;99.90
49224;DHT22;35050;51.316;5.994;2023-03-26T07:54:11;9.00;99.90
49224;DHT22;35050;51.316;5.994;2023-03-26T07:57:02;9.00;99.90
49224;DHT22;35050;51.316;5.994;2023-03-26T07:59:35;9.00;99.90
49224;DHT22;35050;51.316;5.994;2023-03-26T08:06:08;9.00;99.90
49224;DHT22;35050;51.316;5.994;2023-03-26T08:08:22;9.00;99.90
49224;DHT22;35050;51.316;5.994;2023-03-26T08:13:34;9.10;99.90
49224;DHT22;35050;51.316;5.994;2023-03-26T08:16:07;9.00;99.90
49224;DHT22;35050;51.316;5.994;2023-03-26T08:21:54;9.20;99.90
49224;DHT22;35050;51.316;5.994;2023-03-26T08:27:08;9.30;99.90
49224;DHT22;35050;51.316;5.994;2023-03-26T08:30:20;9.30;99.90
49224;DHT22;35050;51.316;5.994;2023-03-26T08:32:39;9.20;99.90
49224;DHT22;35050;51.316;5.994;2023-03-26T08:35:05;9.30;99.90
49224;DHT22;35050;51.316;5.994;2023-03-26T08:37:31;9.40;99.90
49224;DHT22;35050;51.316;5.994;2023-03-26T08:39:57;9.30;99.90
49224;DHT22;35050;51.316;5.994;2023-03-26T08:42:59;9.40;99.90
49224;DHT22;35050;51.316;5.994;2023-03-26T08:45:32;9.30;99.90
49224;DHT22;35050;51.316;5.994;2023-03-26T09:02:00;9.30;99.90
49224;DHT22;35050;51.316;5.994;2023-03-26T09:13:16;9.40;99.90
49224;DHT22;35050;51.316;5.994;2023-03-26T09:29:59;9.40;99.90
49224;DHT22;35050;51.316;5.994;2023-03-26T09:38:38;9.60;99.90
49224;DHT22;35050;51.316;5.994;2023-03-26T10:01:36;9.30;99.90
49224;DHT22;35050;51.316;5.994;2023-03-26T10:04:32;9.40;99.90
49224;DHT22;35050;51.316;5.994;2023-03-26T10:12:34;9.60;99.90
49224;DHT22;35050;51.316;5.994;2023-03-26T10:15:09;9.70;99.90
49224;DHT22;35050;51.316;5.994;2023-03-26T10:20:31;9.70;99.90
49224;DHT22;35050;51.316;5.994;2023-03-26T10:23:03;9.70;99.90
49224;DHT22;35050;51.316;5.994;2023-03-26T10:26:05;9.70;99.90
49224;DHT22;35050;51.316;5.994;2023-03-26T10:32:05;9.70;99.90
49224;DHT22;35050;51.316;5.994;2023-03-26T10:53:52;9.80;99.90
49224;DHT22;35050;51.316;5.994;2023-03-26T10:56:39;9.70;99.90
49224;DHT22;35050;51.316;5.994;2023-03-26T10:59:09;9.70;99.90
49224;DHT22;35050;51.316;5.994;2023-03-26T11:07:15;9.90;99.90
49224;DHT22;35050;51.316;5.994;2023-03-26T11:15:12;9.90;99.90
49224;DHT22;35050;51.316;5.994;2023-03-26T11:20:55;10.10;99.90
49224;DHT22;35050;51.316;5.994;2023-03-26T11:28:49;10.20;99.90
49224;DHT22;35050;51.316;5.994;2023-03-26T11:33:55;10.50;99.90
49224;DHT22;35050;51.316;5.994;2023-03-26T11:36:25;10.70;99.90
49224;DHT22;35050;51.316;5.994;2023-03-26T11:38:56;10.50;99.90
49224;DHT22;35050;51.316;5.994;2023-03-26T11:41:28;10.30;99.90
49224;DHT22;35050;51.316;5.994;2023-03-26T11:46:25;10.90;99.90
49224;DHT22;35050;51.316;5.994;2023-03-26T11:48:58;11.00;99.90
49224;DHT22;35050;51.316;5.994;2023-03-26T11:51:35;10.70;99.90
49224;DHT22;35050;51.316;5.994;2023-03-26T11:54:02;10.50;99.90
49224;DHT22;35050;51.316;5.994;2023-03-26T12:04:27;10.50;99.90
49224;DHT22;35050;51.316;5.994;2023-03-26T12:09:32;10.70;99.90
49224;DHT22;35050;51.316;5.994;2023-03-26T12:12:03;11.00;99.90
49224;DHT22;35050;51.316;5.994;2023-03-26T12:14:31;10.90;99.90
49224;DHT22;35050;51.316;5.994;2023-03-26T12:17:07;10.70;99.90
49224;DHT22;35050;51.316;5.994;2023-03-26T12:19:37;10.80;99.90
49224;DHT22;35050;51.316;5.994;2023-03-26T12:22:04;11.00;99.90
49224;DHT22;35050;51.316;5.994;2023-03-26T12:24:32;11.10;99.90
49224;DHT22;35050;51.316;5.994;2023-03-26T12:29:58;11.10;99.90
49224;DHT22;35050;51.316;5.994;2023-03-26T12:32:35;11.30;99.90
49224;DHT22;35050;51.316;5.994;2023-03-26T12:35:22;11.20;99.90
49224;DHT22;35050;51.316;5.994;2023-03-26T12:37:52;10.90;99.90
49224;DHT22;35050;51.316;5.994;2023-03-26T12:43:02;10.90;99.90
49224;DHT22;35050;51.316;5.994;2023-03-26T12:45:31;11.20;99.90
49224;DHT22;35050;51.316;5.994;2023-03-26T12:48:01;10.90;99.90
49224;DHT22;35050;51.316;5.994;2023-03-26T12:53:18;11.20;99.90
49224;DHT22;35050;51.316;5.994;2023-03-26T13:04:35;11.50;99.90
49224;DHT22;35050;51.316;5.994;2023-03-26T13:12:17;11.50;99.90
49224;DHT22;35050;51.316;5.994;2023-03-26T13:14:55;11.50;99.90
49224;DHT22;35050;51.316;5.994;2023-03-26T13:17:48;11.30;99.90
49224;DHT22;35050;51.316;5.994;2023-03-26T13:20:59;11.60;99.90
49224;DHT22;35050;51.316;5.994;2023-03-26T13:23:32;11.40;99.90
49224;DHT22;35050;51.316;5.994;2023-03-26T13:31:35;11.60;99.90
49224;DHT22;35050;51.316;5.994;2023-03-26T13:34:13;11.50;99.90
49224;DHT22;35050;51.316;5.994;2023-03-26T13:47:49;11.40;99.90
49224;DHT22;35050;51.316;5.994;2023-03-26T13:50:32;11.40;99.90
49224;DHT22;35050;51.316;5.994;2023-03-26T14:00:57;11.30;99.90
49224;DHT22;35050;51.316;5.994;2023-03-26T14:04:07;11.40;99.90
49224;DHT22;35050;51.316;5.994;2023-03-26T14:11:59;11.60;99.90
49224;DHT22;35050;51.316;5.994;2023-03-26T14:14:47;11.60;99.90
49224;DHT22;35050;51.316;5.994;2023-03-26T14:17:29;11.50;99.90
49224;DHT22;35050;51.316;5.994;2023-03-26T14:26:31;11.30;99.90
49224;DHT22;35050;51.316;5.994;2023-03-26T14:31:37;11.40;99.90
49224;DHT22;35050;51.316;5.994;2023-03-26T14:42:20;11.50;99.90
49224;DHT22;35050;51.316;5.994;2023-03-26T14:45:18;11.30;99.90
49224;DHT22;35050;51.316;5.994;2023-03-26T14:53:32;11.10;99.90
49224;DHT22;35050;51.316;5.994;2023-03-26T15:12:46;10.90;99.90
49224;DHT22;35050;51.316;5.994;2023-03-26T15:18:49;10.60;99.90
49224;DHT22;35050;51.316;5.994;2023-03-26T15:40:32;10.30;99.90
49224;DHT22;35050;51.316;5.994;2023-03-26T15:43:17;10.30;99.90
49224;DHT22;35050;51.316;5.994;2023-03-26T15:45:51;10.20;99.90
49224;DHT22;35050;51.316;5.994;2023-03-26T15:48:45;10.10;99.90
49224;DHT22;35050;51.316;5.994;2023-03-26T15:54:19;9.80;99.90
49224;DHT22;35050;51.316;5.994;2023-03-26T16:16:47;9.70;99.90
49224;DHT22;35050;51.316;5.994;2023-03-26T16:22:00;9.70;99.90
49224;DHT22;35050;51.316;5.994;2023-03-26T16:24:39;9.80;99.90
49224;DHT22;35050;51.316;5.994;2023-03-26T16:32:32;9.70;99.90
49224;DHT22;35050;51.316;5.994;2023-03-26T16:35:21;9.80;99.90
49224;DHT22;35050;51.316;5.994;2023-03-26T16:38:15;9.90;99.90
49224;DHT22;35050;51.316;5.994;2023-03-26T16:41:22;9.80;99.90
49224;DHT22;35050;51.316;5.994;2023-03-26T16:52:08;9.90;99.90
49224;DHT22;35050;51.316;5.994;2023-03-26T16:55:10;9.80;99.90
49224;DHT22;35050;51.316;5.994;2023-03-26T17:13:43;9.40;99.90
49224;DHT22;35050;51.316;5.994;2023-03-26T17:16:26;9.40;99.90
49224;DHT22;35050;51.316;5.994;2023-03-26T17:21:44;9.20;99.90
49224;DHT22;35050;51.316;5.994;2023-03-26T17:27:26;9.60;99.90
49224;DHT22;35050;51.316;5.994;2023-03-26T17:35:45;9.50;99.90
49224;DHT22;35050;51.316;5.994;2023-03-26T17:40:47;9.30;99.90
49224;DHT22;35050;51.316;5.994;2023-03-26T17:48:47;8.90;99.90
49224;DHT22;35050;51.316;5.994;2023-03-26T17:52:22;9.00;99.90
49224;DHT22;35050;51.316;5.994;2023-03-26T17:54:35;9.00;99.90
49224;DHT22;35050;51.316;5.994;2023-03-26T17:57:13;9.00;99.90
49224;DHT22;35050;51.316;5.994;2023-03-26T17:59:41;8.80;99.90
49224;DHT22;35050;51.316;5.994;2023-03-26T18:02:14;8.80;99.90
49224;DHT22;35050;51.316;5.994;2023-03-26T18:04:43;8.90;99.90
49224;DHT22;35050;51.316;5.994;2023-03-26T18:10:35;8.50;99.90
49224;DHT22;35050;51.316;5.994;2023-03-26T18:15:48;8.60;99.90
49224;DHT22;35050;51.316;5.994;2023-03-26T18:18:27;8.60;99.90
49224;DHT22;35050;51.316;5.994;2023-03-26T18:20:57;8.30;99.90
49224;DHT22;35050;51.316;5.994;2023-03-26T18:23:29;8.50;99.90
49224;DHT22;35050;51.316;5.994;2023-03-26T18:26:36;8.40;99.90
49224;DHT22;35050;51.316;5.994;2023-03-26T18:31:40;8.30;99.90
49224;DHT22;35050;51.316;5.994;2023-03-26T18:34:14;8.30;99.90
49224;DHT22;35050;51.316;5.994;2023-03-26T18:36:44;8.50;99.90
49224;DHT22;35050;51.316;5.994;2023-03-26T18:39:13;8.50;99.90
49224;DHT22;35050;51.316;5.994;2023-03-26T18:41:40;8.30;99.90
49224;DHT22;35050;51.316;5.994;2023-03-26T18:44:13;8.40;99.90
49224;DHT22;35050;51.316;5.994;2023-03-26T18:46:40;8.30;99.90
49224;DHT22;35050;51.316;5.994;2023-03-26T18:49:06;8.30;99.90
49224;DHT22;35050;51.316;5.994;2023-03-26T18:51:34;8.20;99.90
49224;DHT22;35050;51.316;5.994;2023-03-26T18:54:04;8.10;99.90
49224;DHT22;35050;51.316;5.994;2023-03-26T18:56:35;8.20;99.90
49224;DHT22;35050;51.316;5.994;2023-03-26T18:59:03;8.10;99.90
49224;DHT22;35050;51.316;5.994;2023-03-26T19:01:31;8.40;99.90
49224;DHT22;35050;51.316;5.994;2023-03-26T19:04:00;8.30;99.90
49224;DHT22;35050;51.316;5.994;2023-03-26T19:06:33;8.30;99.90
49224;DHT22;35050;51.316;5.994;2023-03-26T19:09:05;8.20;99.90
49224;DHT22;35050;51.316;5.994;2023-03-26T19:11:32;8.20;99.90
49224;DHT22;35050;51.316;5.994;2023-03-26T19:14:14;8.20;99.90
49224;DHT22;35050;51.316;5.994;2023-03-26T19:16:41;8.00;99.90
49224;DHT22;35050;51.316;5.994;2023-03-26T19:19:15;8.10;99.90
49224;DHT22;35050;51.316;5.994;2023-03-26T19:21:43;8.00;99.90
49224;DHT22;35050;51.316;5.994;2023-03-26T19:24:09;8.00;99.90
49224;DHT22;35050;51.316;5.994;2023-03-26T19:26:36;8.00;99.90
49224;DHT22;35050;51.316;5.994;2023-03-26T19:29:03;7.90;99.90
49224;DHT22;35050;51.316;5.994;2023-03-26T19:31:36;7.90;99.90
49224;DHT22;35050;51.316;5.994;2023-03-26T19:37:00;7.80;99.90
49224;DHT22;35050;51.316;5.994;2023-03-26T19:42:01;7.80;99.90
49224;DHT22;35050;51.316;5.994;2023-03-26T19:44:29;7.80;99.90
49224;DHT22;35050;51.316;5.994;2023-03-26T19:47:21;7.60;99.90
49224;DHT22;35050;51.316;5.994;2023-03-26T19:50:06;7.60;99.90
49224;DHT22;35050;51.316;5.994;2023-03-26T19:52:37;7.60;99.90
49224;DHT22;35050;51.316;5.994;2023-03-26T19:57:33;7.60;99.90
49224;DHT22;35050;51.316;5.994;2023-03-26T20:00:04;7.50;99.90
49224;DHT22;35050;51.316;5.994;2023-03-26T20:02:38;7.40;99.90
49224;DHT22;35050;51.316;5.994;2023-03-26T20:05:04;7.60;99.90
49224;DHT22;35050;51.316;5.994;2023-03-26T20:07:29;7.60;99.90
49224;DHT22;35050;51.316;5.994;2023-03-26T20:09:55;7.40;99.90
49224;DHT22;35050;51.316;5.994;2023-03-26T20:12:21;7.60;99.90
49224;DHT22;35050;51.316;5.994;2023-03-26T20:14:47;7.40;99.90
49224;DHT22;35050;51.316;5.994;2023-03-26T20:17:15;7.50;99.90
49224;DHT22;35050;51.316;5.994;2023-03-26T20:19:45;7.50;99.90
49224;DHT22;35050;51.316;5.994;2023-03-26T20:22:13;7.50;99.90
49224;DHT22;35050;51.316;5.994;2023-03-26T20:24:39;7.50;99.90
49224;DHT22;35050;51.316;5.994;2023-03-26T20:27:06;7.40;99.90
49224;DHT22;35050;51.316;5.994;2023-03-26T20:29:31;7.40;99.90
49224;DHT22;35050;51.316;5.994;2023-03-26T20:31:57;7.50;99.90
49224;DHT22;35050;51.316;5.994;2023-03-26T20:34:23;7.40;99.90
49224;DHT22;35050;51.316;5.994;2023-03-26T20:36:49;7.40;99.90
49224;DHT22;35050;51.316;5.994;2023-03-26T20:39:20;7.40;99.90
49224;DHT22;35050;51.316;5.994;2023-03-26T20:41:47;7.30;99.90
49224;DHT22;35050;51.316;5.994;2023-03-26T20:44:16;7.40;99.90
49224;DHT22;35050;51.316;5.994;2023-03-26T20:46:42;7.40;99.90
49224;DHT22;35050;51.316;5.994;2023-03-26T20:49:09;7.40;99.90
49224;DHT22;35050;51.316;5.994;2023-03-26T20:51:38;7.40;99.90
49224;DHT22;35050;51.316;5.994;2023-03-26T20:54:21;7.30;99.90
49224;DHT22;35050;51.316;5.994;2023-03-26T20:56:48;7.20;99.90
49224;DHT22;35050;51.316;5.994;2023-03-26T20:59:19;7.30;99.90
49224;DHT22;35050;51.316;5.994;2023-03-26T21:01:46;7.30;99.90
49224;DHT22;35050;51.316;5.994;2023-03-26T21:04:13;7.30;99.90
49224;DHT22;35050;51.316;5.994;2023-03-26T21:06:41;7.30;99.90
49224;DHT22;35050;51.316;5.994;2023-03-26T21:09:13;7.30;99.90
49224;DHT22;35050;51.316;5.994;2023-03-26T21:14:40;7.40;99.90
49224;DHT22;35050;51.316;5.994;2023-03-26T21:17:14;7.20;99.90
49224;DHT22;35050;51.316;5.994;2023-03-26T21:19:41;7.20;99.90
49224;DHT22;35050;51.316;5.994;2023-03-26T21:22:10;7.10;99.90
49224;DHT22;35050;51.316;5.994;2023-03-26T21:30:11;6.80;99.90
49224;DHT22;35050;51.316;5.994;2023-03-26T21:32:39;6.80;99.90
49224;DHT22;35050;51.316;5.994;2023-03-26T21:35:06;6.90;99.90
49224;DHT22;35050;51.316;5.994;2023-03-26T21:37:33;6.80;99.90
49224;DHT22;35050;51.316;5.994;2023-03-26T21:39:59;6.90;99.90
49224;DHT22;35050;51.316;5.994;2023-03-26T21:42:32;6.70;99.90
49224;DHT22;35050;51.316;5.994;2023-03-26T21:44:58;6.60;99.90
49224;DHT22;35050;51.316;5.994;2023-03-26T21:47:24;6.60;99.90
49224;DHT22;35050;51.316;5.994;2023-03-26T21:49:50;6.70;99.90
49224;DHT22;35050;51.316;5.994;2023-03-26T21:52:16;6.60;99.90
49224;DHT22;35050;51.316;5.994;2023-03-26T21:54:42;6.60;99.90
49224;DHT22;35050;51.316;5.994;2023-03-26T22:00:08;6.50;99.90
49224;DHT22;35050;51.316;5.994;2023-03-26T22:05:57;6.40;99.90
49224;DHT22;35050;51.316;5.994;2023-03-26T22:08:29;6.40;99.90
49224;DHT22;35050;51.316;5.994;2023-03-26T22:10:55;6.40;99.90
49224;DHT22;35050;51.316;5.994;2023-03-26T22:13:21;6.40;99.90
49224;DHT22;35050;51.316;5.994;2023-03-26T22:15:47;6.40;99.90
49224;DHT22;35050;51.316;5.994;2023-03-26T22:18:13;6.40;99.90
49224;DHT22;35050;51.316;5.994;2023-03-26T22:20:39;6.30;99.90
49224;DHT22;35050;51.316;5.994;2023-03-26T22:23:08;6.20;99.90
49224;DHT22;35050;51.316;5.994;2023-03-26T22:25:34;6.40;99.90
49224;DHT22;35050;51.316;5.994;2023-03-26T22:28:00;6.30;99.90
49224;DHT22;35050;51.316;5.994;2023-03-26T22:30:26;6.40;99.90
49224;DHT22;35050;51.316;5.994;2023-03-26T22:32:52;6.30;99.90
49224;DHT22;35050;51.316;5.994;2023-03-26T22:35:18;6.40;99.90